Hauptseite
METAR-TAF:

METAR-TAF

Flughäfen :

Adrar, Algerien

Breite: 27-53N, Länge: 000-17W, Höhe: 263 m

Beobachtung

Neuester Wetterbericht von vor 48 Minuten, um 05:00 UTC
Wind 12 kt aus Nord/Nordwest
Temperatur 25°C
Luftfeuchtigkeit 36%
Luftdruck 1013 hPa
Sichtweite: 8000 m

METAR: DAUA 190500Z 34012KT 8000 NSC 25/09 Q1013

Zeit: 06:48 (05:48 UTC)

Prognose

Neuester Wetterbericht von vor 48 Minuten, um 05:00 UTC
Gültige Prognose vom 19 um 06 UTC bis 20 um 06 UTC
Wind 12 kt aus Nord
Sichtweite: 8000 m

TAF: DAUA 190500Z 1906/2006 01012KT 8000 NSC

Wetterbeobachtungen und Prognosen von mehr als 4000 Flughäfen (METAR und TAF Bericht).

Die verfügbaren Stationen werden durch gelbe und rote Markierungen auf der Karte dargestellt.

Führen Sie die Maus auf sie, um den Namen der Station zu sehen.

Darauf klicken, um die Beobachtung von Wetterbeobachtungen und Prognosen zu sehen.

Um die Karte zu ändern : klicken Sie auf den grünen Tasten mit einem schwarzen Kreuz Zum Vergrößern, auf den grünen Button mit einem Gedankenstrich zu verkleinern, oder auf die grünen Pfeile für benachbarte Karten.


METAR-TAF: